LTBYLTCD

Guest
Details From LTBY - ANADOLU
To LTCD - ERZINCAN
Flight Number -
Tags generated
Created
Modified
Stats Distance 417 nm / 772 km
Max Altitude 35,000 ft / 10,668 m
Waypoints 6
Social Downloads 1
Likes 0
Share VATSIM

Download

Looking for another format? Having issues loading an existing format? Contact us
Advertisement - Login to hide

Notes

Basic altitude profile: - Ascent Rate: 2500ft/min - Ascent Speed: 250kts - Cruise Altitude: 37000ft - Cruise Speed: 310kts - Descent Rate: 1500ft/min - Descent Speed: 250kts Options: - Use NATs: yes - Use PACOTS: yes - Use low airways: yes - Use high airways: yes

Route

LTBY BAG UT31 SIV T31 EBEDI LTCD

ID Type Via Altitude Latitude Longitude Leg Dist Tot Dist Heading (true) Name
O LTBY APT - 0 ft / 0 m 39.80991˚ 30.51939˚ - 0 nm - ANADOLU
BAG VOR - 35,000 ft / 10,668 m 40.06953˚ 32.81039˚ 106 nm 106 nm 81° / 82° BAGLUM VOR-DME
ELDEN FIX UT31 (AWY-HI) 35,000 ft / 10,668 m 39.90972˚ 35.42917˚ 120 nm 227 nm 94° / 95° -
SIV NDB UT31 (AWY-HI) 27,500 ft / 8,382 m 39.78944˚ 36.89333˚ 67 nm 295 nm 96° / 97° SIVAS NDB
EBEDI FIX T31 (AWY-LO) 19,500 ft / 5,944 m 39.72500˚ 39.12361˚ 103 nm 398 nm 91° / 93° -
O LTCD APT - 0 ft / 0 m 39.71070˚ 39.52114˚ 18 nm 416 nm 93° / 93° ERZINCAN

Altitude Profile

Advertisement - Login to hide

Weather


0- 5 10 15 20 25 30 35+ Temperature / ° C

Clouds and Precipitation
Forecast for 2017-12-17 18:00 UTC. Updated an hour ago

Ground ~20,000 ft ~40,000 ft Winds

LTBY

Details ICAO LTBY (AOE)
Name ANADOLU
Region Turkey
Timezone Europe/Istanbul (UTC+3.0)
Stats Elevation 2,588 ft / 789 m (AMSL)
Location 39.809907° 30.519393°
Runways 1
Magnetic Variation 5.440° E

METAR

LTBY 171550Z 09007KT 060V130 9999 SCT035 BKN100 13/05 Q1013

Decode

TAF

Not found

Departure Runways

ID Width Length Bearing (true) Bearing (mag) Surface Threshold Offset Overrun Length
09 98 ft / 30 m 8,250 ft / 2,515 m 92.76° 87.32° Asphalt 0 ft / 0 m 97 ft / 30 m
27 98 ft / 30 m 8,250 ft / 2,515 m 272.78° 267.34° Asphalt 0 ft / 0 m 95 ft / 29 m

LTCD

Details ICAO LTCD (ERC)
Name ERZINCAN
Region Turkey
Timezone Europe/Istanbul (UTC+3.0)
Stats Elevation 3,783 ft / 1,153 m (AMSL)
Location 39.710705° 39.521140°
Runways 2
Magnetic Variation 6.011° E

METAR

LTCD 171550Z 00000KT 9999 FEW045 M00/M04 Q1024 NOSIG

Decode

TAF

Not found

Destination Runways

ID Width Length Bearing (true) Bearing (mag) Surface Threshold Offset Overrun Length
11 148 ft / 45 m 9,825 ft / 2,995 m 110.83° 104.82° Concrete 0 ft / 0 m 197 ft / 60 m
13 137 ft / 42 m 5,890 ft / 1,795 m 127.15° 121.14° Concrete 0 ft / 0 m 0 ft / 0 m
29 148 ft / 45 m 9,825 ft / 2,995 m 290.86° 284.85° Concrete 0 ft / 0 m 197 ft / 60 m
31 137 ft / 42 m 5,890 ft / 1,795 m 307.16° 301.15° Concrete 0 ft / 0 m 0 ft / 0 m